Airfield :
LOGIN :

Register | Disclaimer

   EN    FR    IT 

 










Legend :    VFR   Marginal VFR   IFR   Intensive IFR   Very Intensive IFR
Visi :
Ceiling :
>= 8 km
>= 3000ft
5 to 8 km
1000 to 3000 ft
1500m to 5 km
500 to 1000 ft
800 to 1500m
200 to 500 ft
< 800m
< 200 ft
Symbols :   Thunderstorms  Fog  Heavy snow  Heavy precipitations  Wind > 20 kt
SIGMETs :     Misc.  Thunderstorms  Icing  Turbulence  Mountain Waves  Volcanic Ashes







- Airport Elevation : 183 ft
- IATA code : HAJ


EDDV - Hanover/Langenhagen Int.

CURRENT METAR :
  • 250950Z 12007KT 080V180 CAVOK 30/17 Q1020 NOSIG

EXPIRED METARs :
  • 250920Z 14006KT 070V210 CAVOK 30/16 Q1020 NOSIG
  • 250850Z 14007KT 080V180 CAVOK 29/15 Q1020 NOSIG
  • 250820Z 18008KT 090V220 CAVOK 29/15 Q1020 NOSIG
  • 250750Z 13005KT 060V200 CAVOK 28/14 Q1020 NOSIG
  • 250720Z 13004KT 060V210 CAVOK 26/13 Q1020 NOSIG
  • 250650Z 12004KT 070V150 CAVOK 25/12 Q1020 NOSIG

TAF TAF EDDV
Valid from the 25 at 06:00 until the 26 at 06:00 UTC


250500Z 2506/2606 10004KT CAVOK
BECMG 2506/2508 15010KT
BECMG 2517/2519 15005KT
BECMG 2604/2606 24005KT
No reported NOTAMs for that airfield.



MET'MAP, your aeronautical weather chart ! - Copyright ORBIFLY December 2007 - Disclaimer

ORBIFLY MET'MAP TEAM :

Programming & Development : Alexandra Zaïnal
Concept & Development : Baudouin d'Aumeries
Co-Development & Prog : Marc-Olivier Méhu
Technical & hardware support : Manuel Goepfert

Contact : metmap@orbifly.com




SOURCES & CREDITS :

   NOAA